Main page
METAR-TAF:

METAR-TAF

Airports :

Bahrain International Airport

Bahrain, Bahrain

latitude: 26-16N, longitude: 050-39E, elevation: 2 m

Current weather observation

The report was made 14 minutes ago, at 08:00 UTC
Wind 11 kt from the Northwest
Temperature 37°C
Humidity 29%
Pressure 1001 hPa
Visibility 10 km or more
no clouds below 1500 m and no cumulonimbus

METAR: OBBI 250800Z 31011KT CAVOK 37/16 Q1001 NOSIG

Time: 11:14 (08:14 UTC)

Forecast

The report was made 3 hours and 14 minutes ago, at 05:00 UTC
Forecast valid from 25 at 06 UTC to 26 at 12 UTC
Wind 13 kt from the Northwest
Visibility 10 km or more
no clouds below 1500 m and no cumulonimbus
Becoming
from 25 at 16 UTC to 25 at 18 UTC
Wind 5 kt from variable directions
Becoming
from 26 at 04 UTC to 26 at 06 UTC
Wind 13 kt from the Northwest

TAF: OBBI 250500Z 2506/2612 31013KT CAVOK BECMG 2516/2518 VRB05KT BECMG 2604/2606 32013KT

Weather observations and forecasts of more than 4000 airports (METAR and TAF reports).

The available stations are represented by yellow and red dots on the map.

Hover mouse over dot to see the name of the station.

Then click to see weather observations and forecasts.

To change the map : click on the green buttons with a black cross to zoom in, on the green button with a dash to zoom out, or on the green arrows for adjacent maps.


METAR-TAF: